Flight Track Log - Related Links

Times and Time Zones

All times are in EDT time to prevent confusion due to time zone crossing. See the SWA1319 flight status page for this flight to view local times or setup timezone preferences in your user account.

Time Position Orientation Groundspeed Altitude Reporting Facility
EDT Latitude Longitude Course Direction KTS MPH feet Rate Location/Type
Thu 08:37:43 AM 42.9500 -71.4333 144° Southeast 164 189 1,000  Level KA90
Thu 08:38:19 AM 42.9833 -71.4500 340° North 188 216 2,400 2,627 Climbing KA90
Thu 08:40:16 AM 43.0519 -71.3889 33° Northeast 250 288 7,700 2,610 Climbing Boston Center
Thu 08:41:16 AM 43.0553 -71.2836 87° East 265 305 10,100 1,850 Climbing Boston Center
Thu 08:42:16 AM 43.0581 -71.1614 88° East 304 350 11,400 2,150 Climbing Boston Center
Thu 08:43:00 AM 42.9835 -70.8668 144° Southeast  Level FlightAware Approximate
Thu 08:43:16 AM 43.0669 -71.0219 85° East 353 406 14,400  Level Boston Center
Thu 08:44:16 AM 43.0300 -70.9178 116° Southeast 292 336 16,800 2,150 Climbing Boston Center
Thu 08:45:16 AM 42.9547 -70.9025 172° South 260 299 18,700 1,400 Climbing Boston Center
Thu 08:46:16 AM 42.8864 -70.9325 198° South 260 299 19,600 1,050 Climbing Boston Center
Thu 08:47:16 AM 42.8036 -70.9714 199° South 286 329 20,800 1,850 Climbing Boston Center
Thu 08:48:16 AM 42.7186 -71.0131 200° South 315 362 23,300 2,250 Climbing Boston Center
Thu 08:49:16 AM 42.6400 -71.0514 200° South 320 368 25,300 1,200 Climbing Boston Center
Thu 08:50:16 AM 42.5531 -71.0958 201° Southwest 320 368 25,700 550 Climbing Boston Center
Thu 08:51:16 AM 42.4617 -71.1400 200° South 334 384 26,400 1,400 Climbing Boston Center
Thu 08:52:16 AM 42.3981 -71.2311 227° Southwest 334 384 28,500 1,650 Climbing Boston Center
Thu 08:53:16 AM 42.3492 -71.3389 238° Southwest 334 384 29,700 950 Climbing Boston Center
Thu 08:54:16 AM 42.2981 -71.4492 238° Southwest 339 390 30,400 1,000 Climbing Boston Center
Thu 08:55:16 AM 42.2408 -71.5653 236° Southwest 344 396 31,700 1,250 Climbing Boston Center
Thu 08:56:16 AM 42.1956 -71.6583 237° Southwest 349 402 32,900 1,000 Climbing Boston Center
Thu 08:57:16 AM 42.1461 -71.7653 238° Southwest 344 396 33,700 550 Climbing Boston Center
Thu 08:58:16 AM 42.0989 -71.8664 238° Southwest 339 390 34,000 150 Climbing Boston Center
Thu 08:59:16 AM 42.0492 -71.9703 237° Southwest 339 390 34,000  Level Boston Center
Thu 09:00:16 AM 42.0017 -72.0742 238° Southwest 334 384 34,000  Level Boston Center
Thu 09:01:16 AM 41.9561 -72.1806 240° Southwest 334 384 34,000  Level Boston Center
Thu 09:02:16 AM 41.9042 -72.2811 235° Southwest 334 384 34,000  Level Boston Center
Thu 09:03:16 AM 41.8564 -72.3872 239° Southwest 334 384 34,000  Level Boston Center
Thu 09:04:16 AM 41.8064 -72.4903 237° Southwest 334 384 34,000  Level Boston Center
Thu 09:05:16 AM 41.7564 -72.5958 238° Southwest 334 384 34,000  Level Boston Center
Thu 09:06:16 AM 41.7081 -72.7014 239° Southwest 334 384 34,000  Level Boston Center
Thu 09:07:16 AM 41.6558 -72.8042 236° Southwest 339 390 34,000  Level Boston Center
Thu 09:08:16 AM 41.6075 -72.9092 238° Southwest 339 390 34,000  Level Boston Center
Thu 09:09:16 AM 41.5569 -73.0172 238° Southwest 339 390 34,000  Level Boston Center
Thu 09:10:16 AM 41.5106 -73.1136 237° Southwest 339 390 34,000  Level Boston Center
Thu 09:12:17 AM 41.4089 -73.3244 237° Southwest 339 390 34,000  Level New York Center
Thu 09:13:15 AM 41.3567 -73.4275 236° Southwest 339 390 34,000  Level New York Center
Thu 09:14:16 AM 41.3064 -73.5331 238° Southwest 339 390 34,000  Level New York Center
Thu 09:15:17 AM 41.2519 -73.6331 234° Southwest 339 390 34,000  Level New York Center
Thu 09:16:15 AM 41.1953 -73.7297 232° Southwest 339 390 34,000  Level New York Center
Thu 09:17:15 AM 41.1344 -73.8317 232° Southwest 350 403 34,000  Level New York Center
Thu 09:18:17 AM 41.0778 -73.9256 231° Southwest 350 403 34,000  Level New York Center
Thu 09:19:17 AM 41.0186 -74.0300 233° Southwest 350 403 34,000  Level New York Center
Thu 09:20:15 AM 40.9597 -74.1261 231° Southwest 350 403 34,000 -1,100 Level New York Center
Thu 09:21:17 AM 40.8967 -74.2189 228° Southwest 350 403 31,800 -2,900 Descending New York Center
Thu 09:22:15 AM 40.8353 -74.3228 232° Southwest 356 410 28,200 -2,924 Descending New York Center
Thu 09:23:16 AM 40.7758 -74.4267 233° Southwest 362 417 26,000 -1,091 Descending New York Center
Thu 09:24:16 AM 40.7167 -74.5192 230° Southwest 356 410 26,000  Level New York Center
Thu 09:25:17 AM 40.6594 -74.6147 232° Southwest 350 403 26,000  Level New York Center
Thu 09:26:17 AM 40.6000 -74.7125 231° Southwest 345 397 26,000  Level New York Center
Thu 09:27:15 AM 40.5364 -74.8069 228° Southwest 345 397 26,000  Level New York Center
Thu 09:28:16 AM 40.4706 -74.8986 227° Southwest 350 403 26,000  Level New York Center
Thu 09:29:16 AM 40.4047 -74.9956 228° Southwest 355 409 26,000  Level New York Center
Thu 09:30:17 AM 40.3367 -75.0894 226° Southwest 360 414 26,000 -1,169 Level New York Center
Thu 09:31:14 AM 40.2706 -75.1858 228° Southwest 360 414 23,700 -2,542 Descending New York Center
Thu 09:32:15 AM 40.2047 -75.2769 227° Southwest 355 409 21,000 -2,754 Descending New York Center
Thu 09:33:16 AM 40.1364 -75.3675 225° Southwest 340 391 18,100 -1,488 Descending New York Center
Thu 09:34:16 AM 40.0836 -75.4400 226° Southwest 322 371 18,000 -50 Descending New York Center
Thu 09:35:16 AM 40.0175 -75.5331 227° Southwest 317 365 18,000 -101 Level New York Center
Thu 09:36:15 AM 39.9642 -75.6081 227° Southwest 317 365 17,800 -550 Descending New York Center
Thu 09:37:16 AM 39.9019 -75.7011 229° Southwest 317 365 16,900 -885 Descending New York Center
Thu 09:38:17 AM 39.8589 -75.7847 236° Southwest 317 365 16,000 -908 Descending New York Center
Thu 09:39:15 AM 39.8111 -75.8758 236° Southwest 317 365 15,100 -956 Descending New York Center
Thu 09:41:19 AM 39.7000 -76.0833 235° Southwest 313 360 13,100 -978 Descending Potomac TRACON
Thu 09:42:19 AM 39.6500 -76.1833 237° Southwest 311 358 12,100 -1,600 Descending Potomac TRACON
Thu 09:43:19 AM 39.6167 -76.2833 247° West 312 359 9,900 -1,357 Descending Potomac TRACON
Thu 09:44:14 AM 39.5833 -76.3667 243° Southwest 284 327 9,500 -1,240 Descending Potomac TRACON
Thu 09:45:20 AM 39.5167 -76.4167 210° Southwest 275 316 7,400 -1,700 Descending Potomac TRACON
Thu 09:46:14 AM 39.4500 -76.4667 210° Southwest 272 313 6,100 -1,252 Descending Potomac TRACON
Thu 09:47:15 AM 39.3833 -76.5000 201° Southwest 277 319 5,000 -545 Descending Potomac TRACON
Thu 09:48:15 AM 39.3000 -76.4833 171° South 283 326 5,000 -500 Level Potomac TRACON
Thu 09:49:15 AM 39.2333 -76.5000 191° South 269 310 4,000 -991 Descending Potomac TRACON
Thu 09:50:10 AM 39.1667 -76.5000 180° South 237 273 3,100 -783 Descending Potomac TRACON
Thu 09:51:10 AM 39.1167 -76.5333 207° Southwest 223 257 2,500 -800 Descending Potomac TRACON
Thu 09:52:10 AM 39.1000 -76.6000 252° West 190 219 1,500 -750 Descending Potomac TRACON
Thu 09:53:10 AM 39.1333 -76.6333 322° Northwest 127 146 1,000 -500 Descending Potomac TRACON

Login

Don't have an account? Register now (free) for customized features, flight alerts, and more!